Time;durP1;ratioP1;P1;durP2;ratioP2;P2;SDS_P1;SDS_P2;PMS_P1;PMS_P2;Temp;Humidity;BMP_temperature;BMP_pressure;BME280_temperature;BME280_humidity;BME280_pressure;Samples;Min_cycle;Max_cycle;Signal;HPM_P1;HPM_P2
2021/06/20 00:00:57;;;;;;;11.27;7.75;;;;;;;;;;4995896;28;20531;-61
2021/06/20 00:03:22;;;;;;;16.23;8.30;;;;;;;;;;4998494;28;20041;-60
2021/06/20 00:05:53;;;;;;;11.77;7.70;;;;;;;;;;5002694;28;20025;-61
2021/06/20 00:08:18;;;;;;;11.35;7.72;;;;;;;;;;5002657;28;20108;-61
2021/06/20 00:10:44;;;;;;;14.32;8.25;;;;;;;;;;5001908;28;20124;-61
2021/06/20 00:13:10;;;;;;;11.70;8.20;;;;;;;;;;5000976;28;20030;-61
2021/06/20 00:15:37;;;;;;;9.65;7.88;;;;;;;;;;4999759;28;20056;-60
2021/06/20 00:18:04;;;;;;;12.25;8.18;;;;;;;;;;5000601;28;20370;-61
2021/06/20 00:20:32;;;;;;;12.60;8.40;;;;;;;;;;4994908;28;20056;-62
2021/06/20 00:22:58;;;;;;;9.43;8.00;;;;;;;;;;5003764;28;20053;-61
2021/06/20 00:25:24;;;;;;;10.55;8.10;;;;;;;;;;5003053;28;20116;-61
2021/06/20 00:27:51;;;;;;;12.27;8.05;;;;;;;;;;5000681;28;20129;-61
2021/06/20 00:30:20;;;;;;;8.75;7.88;;;;;;;;;;5001434;28;20145;-60
2021/06/20 00:32:46;;;;;;;11.77;8.20;;;;;;;;;;4999481;28;20427;-61
2021/06/20 00:35:13;;;;;;;10.50;7.93;;;;;;;;;;5002182;28;20038;-61
2021/06/20 00:37:38;;;;;;;11.60;8.45;;;;;;;;;;5005217;28;20046;-61
2021/06/20 00:40:06;;;;;;;18.40;8.52;;;;;;;;;;4997292;28;20034;-61
2021/06/20 00:42:32;;;;;;;15.85;8.02;;;;;;;;;;4997910;28;20120;-61
2021/06/20 00:44:57;;;;;;;11.43;8.40;;;;;;;;;;4995460;28;20034;-61
2021/06/20 00:47:23;;;;;;;12.88;8.05;;;;;;;;;;5005081;28;20032;-60
2021/06/20 00:49:48;;;;;;;12.48;8.02;;;;;;;;;;4996998;28;20038;-60
2021/06/20 00:52:14;;;;;;;15.80;8.27;;;;;;;;;;5002705;28;20034;-60
2021/06/20 00:54:47;;;;;;;14.32;8.48;;;;;;;;;;5000471;28;20514;-60
2021/06/20 00:57:18;;;;;;;12.63;8.27;;;;;;;;;;4999721;28;20030;-60
2021/06/20 00:59:44;;;;;;;11.68;8.10;;;;;;;;;;4994216;28;20118;-61
2021/06/20 01:02:14;;;;;;;12.20;7.75;;;;;;;;;;4999691;28;20060;-61
2021/06/20 01:04:41;;;;;;;12.18;7.55;;;;;;;;;;4999990;28;20030;-60
2021/06/20 01:07:07;;;;;;;11.95;8.30;;;;;;;;;;5002224;28;20026;-61
2021/06/20 01:09:33;;;;;;;16.75;8.40;;;;;;;;;;4999291;28;20036;-61
2021/06/20 01:11:59;;;;;;;12.80;8.18;;;;;;;;;;4998360;28;20033;-62
2021/06/20 01:14:25;;;;;;;15.70;8.75;;;;;;;;;;4992287;28;20095;-60
2021/06/20 01:16:53;;;;;;;16.67;9.52;;;;;;;;;;5002302;28;20102;-60
2021/06/20 01:19:19;;;;;;;12.57;9.77;;;;;;;;;;5000888;28;20021;-59
2021/06/20 01:21:46;;;;;;;15.77;9.23;;;;;;;;;;5003604;28;20037;-62
2021/06/20 01:24:12;;;;;;;12.00;8.88;;;;;;;;;;4999235;28;20155;-60
2021/06/20 01:26:38;;;;;;;18.20;8.98;;;;;;;;;;4999683;28;20125;-62
2021/06/20 01:29:05;;;;;;;18.02;8.98;;;;;;;;;;4999731;28;20060;-61
2021/06/20 01:31:33;;;;;;;22.15;9.32;;;;;;;;;;4996352;28;20164;-62
2021/06/20 01:34:00;;;;;;;25.65;9.70;;;;;;;;;;5003221;28;20041;-61
2021/06/20 01:36:25;;;;;;;21.52;9.52;;;;;;;;;;5002210;28;20386;-61
2021/06/20 01:38:51;;;;;;;23.77;8.77;;;;;;;;;;5003224;28;20052;-61
2021/06/20 01:41:16;;;;;;;20.25;9.15;;;;;;;;;;4997884;28;20036;-61
2021/06/20 01:43:42;;;;;;;22.40;8.82;;;;;;;;;;4998662;28;20468;-61
2021/06/20 01:46:07;;;;;;;30.13;9.50;;;;;;;;;;4998534;28;20066;-61
2021/06/20 01:48:33;;;;;;;25.00;9.63;;;;;;;;;;5000790;28;20040;-61
2021/06/20 01:50:58;;;;;;;26.05;10.05;;;;;;;;;;4995917;28;20115;-61
2021/06/20 01:53:24;;;;;;;19.70;8.27;;;;;;;;;;4999549;28;20121;-61
2021/06/20 01:55:49;;;;;;;28.05;9.32;;;;;;;;;;5001038;28;20033;-61
2021/06/20 01:58:17;;;;;;;23.17;8.90;;;;;;;;;;4996336;28;20075;-62
2021/06/20 02:00:46;;;;;;;24.08;8.93;;;;;;;;;;4999036;28;20160;-61
2021/06/20 02:03:23;;;;;;;21.88;7.78;;;;;;;;;;5001882;28;20038;-61
2021/06/20 02:05:50;;;;;;;24.23;8.10;;;;;;;;;;5002671;28;20038;-61
2021/06/20 02:08:19;;;;;;;21.02;8.05;;;;;;;;;;4999816;28;20032;-61
2021/06/20 02:10:52;;;;;;;26.48;9.15;;;;;;;;;;4994441;28;20045;-60
2021/06/20 02:13:20;;;;;;;20.67;8.32;;;;;;;;;;5000555;28;20129;-61
2021/06/20 02:15:46;;;;;;;30.40;8.82;;;;;;;;;;4998286;28;20025;-61
2021/06/20 02:18:12;;;;;;;25.20;7.47;;;;;;;;;;4999467;28;20676;-62
2021/06/20 02:20:38;;;;;;;32.20;9.68;;;;;;;;;;4996034;28;20093;-61
2021/06/20 02:23:04;;;;;;;22.35;7.90;;;;;;;;;;4998582;28;20042;-61
2021/06/20 02:25:30;;;;;;;28.38;8.75;;;;;;;;;;5001503;28;20128;-61
2021/06/20 02:27:56;;;;;;;21.67;8.50;;;;;;;;;;5006028;28;20149;-61
2021/06/20 02:30:22;;;;;;;33.15;8.30;;;;;;;;;;5000290;28;20120;-61
2021/06/20 02:32:49;;;;;;;22.25;8.40;;;;;;;;;;4999387;28;20586;-61
2021/06/20 02:35:16;;;;;;;24.38;8.05;;;;;;;;;;5001470;28;20030;-61
2021/06/20 02:37:46;;;;;;;29.33;8.43;;;;;;;;;;4998871;28;20029;-61
2021/06/20 02:40:13;;;;;;;23.63;8.40;;;;;;;;;;4998611;28;20077;-61
2021/06/20 02:42:40;;;;;;;23.35;8.18;;;;;;;;;;5002375;28;20509;-61
2021/06/20 02:45:08;;;;;;;26.42;8.05;;;;;;;;;;5000578;28;20500;-63
2021/06/20 02:47:33;;;;;;;20.63;7.57;;;;;;;;;;4998967;28;20045;-61
2021/06/20 02:49:59;;;;;;;24.38;8.27;;;;;;;;;;4999135;28;20030;-61
2021/06/20 02:52:24;;;;;;;27.48;7.90;;;;;;;;;;5006365;28;20156;-61
2021/06/20 02:54:50;;;;;;;19.98;7.30;;;;;;;;;;4997384;28;20612;-61
2021/06/20 02:57:23;;;;;;;28.42;8.27;;;;;;;;;;4997228;28;20042;-61
2021/06/20 02:59:50;;;;;;;30.13;8.00;;;;;;;;;;5001782;28;20196;-61
2021/06/20 03:02:16;;;;;;;26.05;8.40;;;;;;;;;;5003297;28;20037;-61
2021/06/20 03:04:43;;;;;;;26.48;8.38;;;;;;;;;;5003388;28;20053;-61
2021/06/20 03:07:08;;;;;;;24.58;7.57;;;;;;;;;;5006649;28;20030;-61
2021/06/20 03:09:35;;;;;;;25.08;8.88;;;;;;;;;;5006923;28;20028;-61
2021/06/20 03:12:05;;;;;;;27.90;8.23;;;;;;;;;;5004149;28;20030;-61
2021/06/20 03:14:31;;;;;;;26.52;8.25;;;;;;;;;;4994489;28;20034;-61
2021/06/20 03:16:56;;;;;;;26.33;8.23;;;;;;;;;;5003233;28;20535;-61
2021/06/20 03:19:22;;;;;;;21.83;8.63;;;;;;;;;;4999690;28;20148;-61
2021/06/20 03:21:48;;;;;;;27.10;8.25;;;;;;;;;;4996965;28;20037;-61
2021/06/20 03:24:14;;;;;;;22.02;7.32;;;;;;;;;;5001723;28;20479;-62
2021/06/20 03:26:39;;;;;;;26.52;7.60;;;;;;;;;;5001537;28;20026;-61
2021/06/20 03:29:05;;;;;;;29.58;7.60;;;;;;;;;;4999708;28;20036;-61
2021/06/20 03:31:31;;;;;;;20.95;6.60;;;;;;;;;;5004983;28;20030;-61
2021/06/20 03:33:58;;;;;;;22.02;6.35;;;;;;;;;;4997858;28;20716;-61
2021/06/20 03:36:24;;;;;;;20.30;6.60;;;;;;;;;;5000485;28;20104;-62
2021/06/20 03:38:50;;;;;;;20.35;7.70;;;;;;;;;;5000209;28;20098;-61
2021/06/20 03:41:15;;;;;;;19.27;6.70;;;;;;;;;;5001278;28;20181;-63
2021/06/20 03:43:44;;;;;;;19.17;6.82;;;;;;;;;;4998306;28;20037;-61
2021/06/20 03:46:10;;;;;;;22.63;6.97;;;;;;;;;;5004928;28;20040;-61
2021/06/20 03:48:37;;;;;;;18.02;5.57;;;;;;;;;;5000239;28;20274;-61
2021/06/20 03:51:04;;;;;;;21.50;5.60;;;;;;;;;;4998389;28;20053;-61
2021/06/20 03:53:29;;;;;;;20.42;5.88;;;;;;;;;;4997369;28;20038;-61
2021/06/20 03:55:56;;;;;;;18.67;5.55;;;;;;;;;;4994880;28;20034;-61
2021/06/20 03:58:22;;;;;;;21.40;6.10;;;;;;;;;;4998857;28;20099;-61
2021/06/20 04:00:48;;;;;;;21.55;5.95;;;;;;;;;;4999620;28;20041;-61
2021/06/20 04:03:13;;;;;;;24.52;6.55;;;;;;;;;;5004784;28;20490;-61
2021/06/20 04:05:38;;;;;;;18.55;6.03;;;;;;;;;;5003375;28;20033;-61
2021/06/20 04:08:04;;;;;;;20.75;4.90;;;;;;;;;;4997685;28;20022;-61
2021/06/20 04:10:30;;;;;;;18.35;5.03;;;;;;;;;;5005417;28;20061;-61
2021/06/20 04:12:55;;;;;;;21.13;5.22;;;;;;;;;;4994777;28;20735;-61
2021/06/20 04:15:21;;;;;;;14.77;4.85;;;;;;;;;;5002443;28;20687;-61
2021/06/20 04:17:46;;;;;;;16.77;4.75;;;;;;;;;;5004546;28;20588;-61
2021/06/20 04:20:13;;;;;;;18.58;4.63;;;;;;;;;;4999360;28;20069;-61
2021/06/20 04:22:40;;;;;;;17.23;4.93;;;;;;;;;;4998024;28;20137;-63
2021/06/20 04:25:06;;;;;;;18.48;4.63;;;;;;;;;;5002730;28;20030;-61
2021/06/20 04:27:32;;;;;;;18.90;4.82;;;;;;;;;;5001067;28;20037;-61
2021/06/20 04:29:57;;;;;;;16.42;4.65;;;;;;;;;;4999591;28;20051;-61
2021/06/20 04:32:23;;;;;;;19.27;5.13;;;;;;;;;;5001980;28;20026;-61
2021/06/20 04:34:48;;;;;;;21.10;5.18;;;;;;;;;;5003699;28;20029;-61
2021/06/20 04:37:14;;;;;;;19.08;5.43;;;;;;;;;;4999488;28;20462;-61
2021/06/20 04:39:39;;;;;;;13.02;4.70;;;;;;;;;;4998755;28;20029;-61
2021/06/20 04:42:07;;;;;;;15.98;5.03;;;;;;;;;;4997149;28;20149;-61
2021/06/20 04:44:45;;;;;;;12.80;4.53;;;;;;;;;;4999564;28;20030;-61
2021/06/20 04:47:13;;;;;;;16.15;5.15;;;;;;;;;;5002864;28;20438;-61
2021/06/20 04:49:39;;;;;;;18.27;5.82;;;;;;;;;;4994229;28;20488;-61
2021/06/20 04:52:06;;;;;;;17.17;5.05;;;;;;;;;;4998385;28;20033;-61
2021/06/20 04:54:33;;;;;;;19.55;5.65;;;;;;;;;;5001001;28;20102;-61
2021/06/20 04:56:58;;;;;;;20.27;5.90;;;;;;;;;;5000470;28;20038;-61
2021/06/20 04:59:24;;;;;;;14.82;4.95;;;;;;;;;;4996850;28;20461;-61
2021/06/20 05:01:49;;;;;;;20.33;4.53;;;;;;;;;;5001691;28;20048;-61
2021/06/20 05:04:15;;;;;;;15.35;4.80;;;;;;;;;;5000669;28;20040;-61
2021/06/20 05:06:40;;;;;;;14.77;4.55;;;;;;;;;;5001651;28;20076;-61
2021/06/20 05:09:06;;;;;;;18.00;4.68;;;;;;;;;;5003926;28;20053;-60
2021/06/20 05:11:31;;;;;;;17.45;4.50;;;;;;;;;;4998615;28;20026;-61
2021/06/20 05:13:57;;;;;;;18.23;4.20;;;;;;;;;;5001186;28;20049;-60
2021/06/20 05:16:23;;;;;;;16.92;4.15;;;;;;;;;;4996007;28;20036;-60
2021/06/20 05:18:48;;;;;;;18.92;4.68;;;;;;;;;;5004400;28;20034;-60
2021/06/20 05:21:14;;;;;;;15.43;4.10;;;;;;;;;;4998217;28;20029;-61
2021/06/20 05:23:39;;;;;;;14.85;4.05;;;;;;;;;;4997436;28;20029;-60
2021/06/20 05:26:05;;;;;;;14.30;3.58;;;;;;;;;;4993757;28;20444;-61
2021/06/20 05:28:30;;;;;;;15.40;4.00;;;;;;;;;;4996172;28;20030;-60
2021/06/20 05:30:55;;;;;;;13.73;4.03;;;;;;;;;;5002601;28;20032;-60
2021/06/20 05:33:21;;;;;;;11.85;3.95;;;;;;;;;;5004511;28;20069;-60
2021/06/20 05:35:47;;;;;;;17.23;3.95;;;;;;;;;;5001715;28;20113;-60
2021/06/20 05:38:13;;;;;;;9.88;3.35;;;;;;;;;;5000378;28;20105;-60
2021/06/20 05:40:40;;;;;;;13.77;3.65;;;;;;;;;;4998896;28;20037;-60
2021/06/20 05:43:06;;;;;;;12.02;3.10;;;;;;;;;;4993644;28;20022;-60
2021/06/20 05:45:32;;;;;;;11.82;2.90;;;;;;;;;;4999770;28;20377;-60
2021/06/20 05:47:57;;;;;;;18.52;3.28;;;;;;;;;;4994855;28;20503;-60
2021/06/20 05:50:24;;;;;;;12.77;3.70;;;;;;;;;;5000796;28;20109;-60
2021/06/20 05:52:50;;;;;;;11.30;3.53;;;;;;;;;;4999816;28;20037;-60
2021/06/20 05:55:15;;;;;;;14.00;3.67;;;;;;;;;;5012406;28;20104;-60
2021/06/20 05:57:41;;;;;;;13.68;3.40;;;;;;;;;;5004113;28;20030;-60
2021/06/20 06:00:09;;;;;;;13.02;3.08;;;;;;;;;;5008105;28;20030;-60
2021/06/20 06:02:34;;;;;;;14.73;3.00;;;;;;;;;;5006768;28;20030;-61
2021/06/20 06:05:00;;;;;;;10.55;3.28;;;;;;;;;;5000497;28;20047;-61
2021/06/20 06:07:26;;;;;;;13.18;3.40;;;;;;;;;;5004003;28;20041;-60
2021/06/20 06:09:51;;;;;;;10.88;2.58;;;;;;;;;;4998014;28;20026;-61
2021/06/20 06:12:21;;;;;;;11.15;2.80;;;;;;;;;;5010493;28;20515;-60
2021/06/20 06:14:46;;;;;;;15.40;3.47;;;;;;;;;;5001778;28;20088;-60
2021/06/20 06:17:12;;;;;;;14.73;3.17;;;;;;;;;;5005109;28;20435;-60
2021/06/20 06:19:37;;;;;;;10.13;2.65;;;;;;;;;;5001749;28;20460;-61
2021/06/20 06:22:03;;;;;;;13.55;3.17;;;;;;;;;;5003999;28;20022;-60
2021/06/20 06:24:28;;;;;;;9.95;2.75;;;;;;;;;;5008272;28;20113;-60
2021/06/20 06:26:53;;;;;;;11.52;2.90;;;;;;;;;;5017548;28;20021;-60
2021/06/20 06:29:19;;;;;;;7.57;2.45;;;;;;;;;;5003783;28;20030;-61
2021/06/20 06:31:44;;;;;;;8.10;2.45;;;;;;;;;;5002654;28;20389;-60
2021/06/20 06:34:12;;;;;;;9.13;3.35;;;;;;;;;;5000412;28;20400;-60
2021/06/20 06:36:37;;;;;;;12.23;2.80;;;;;;;;;;5006086;28;20087;-60
2021/06/20 06:39:03;;;;;;;9.35;2.70;;;;;;;;;;5003562;28;20544;-60
2021/06/20 06:41:31;;;;;;;8.05;2.28;;;;;;;;;;5001895;28;20346;-60
2021/06/20 06:43:56;;;;;;;10.40;2.60;;;;;;;;;;4999351;28;20037;-60
2021/06/20 06:46:22;;;;;;;10.93;2.55;;;;;;;;;;4999558;28;20236;-60
2021/06/20 06:48:47;;;;;;;6.53;2.63;;;;;;;;;;4999262;28;20425;-59
2021/06/20 06:51:12;;;;;;;8.60;2.53;;;;;;;;;;4998568;28;20037;-59
2021/06/20 06:53:38;;;;;;;12.07;3.42;;;;;;;;;;5004545;28;20034;-59
2021/06/20 06:56:04;;;;;;;8.63;2.75;;;;;;;;;;4998645;28;20034;-59
2021/06/20 06:58:29;;;;;;;10.30;2.88;;;;;;;;;;5007612;28;20392;-61
2021/06/20 07:00:55;;;;;;;7.18;2.30;;;;;;;;;;5004279;28;20048;-61
2021/06/20 07:03:20;;;;;;;7.93;2.55;;;;;;;;;;5001626;28;20026;-61
2021/06/20 07:05:45;;;;;;;10.23;2.20;;;;;;;;;;5005218;28;20049;-61
2021/06/20 07:08:11;;;;;;;7.00;2.00;;;;;;;;;;5004276;28;20057;-61
2021/06/20 07:10:37;;;;;;;8.30;2.83;;;;;;;;;;5000406;28;20037;-61
2021/06/20 07:13:03;;;;;;;9.85;2.10;;;;;;;;;;5002984;28;20033;-61
2021/06/20 07:15:29;;;;;;;8.88;2.33;;;;;;;;;;4998002;28;20144;-61
2021/06/20 07:17:55;;;;;;;7.95;2.20;;;;;;;;;;5004394;28;20105;-61
2021/06/20 07:20:21;;;;;;;8.27;2.35;;;;;;;;;;5004381;28;20054;-61
2021/06/20 07:22:48;;;;;;;4.82;2.00;;;;;;;;;;4995463;28;20057;-61
2021/06/20 07:25:17;;;;;;;10.90;2.10;;;;;;;;;;4998817;28;20030;-61
2021/06/20 07:27:42;;;;;;;7.15;2.10;;;;;;;;;;5003037;28;20018;-60
2021/06/20 07:30:14;;;;;;;8.63;2.40;;;;;;;;;;5001682;28;20576;-60
2021/06/20 07:32:40;;;;;;;9.98;2.42;;;;;;;;;;4999870;28;20034;-60
2021/06/20 07:35:06;;;;;;;7.25;2.03;;;;;;;;;;4997914;28;20044;-60
2021/06/20 07:37:32;;;;;;;8.48;3.28;;;;;;;;;;5004181;28;20030;-59
2021/06/20 07:39:58;;;;;;;8.80;2.50;;;;;;;;;;5005155;28;20057;-59
2021/06/20 07:42:24;;;;;;;9.65;2.70;;;;;;;;;;4998146;28;20026;-59
2021/06/20 07:44:50;;;;;;;5.78;2.30;;;;;;;;;;5001981;28;20346;-60
2021/06/20 07:47:15;;;;;;;5.70;2.17;;;;;;;;;;4997821;28;20149;-59
2021/06/20 07:49:41;;;;;;;5.22;2.42;;;;;;;;;;5016736;28;20046;-60
2021/06/20 07:52:06;;;;;;;4.70;2.08;;;;;;;;;;5000591;28;20095;-60
2021/06/20 07:54:34;;;;;;;5.78;2.40;;;;;;;;;;5000635;28;20101;-61
2021/06/20 07:57:00;;;;;;;6.97;2.17;;;;;;;;;;4999884;28;20033;-60
2021/06/20 07:59:25;;;;;;;7.28;2.60;;;;;;;;;;5001953;28;20432;-60
2021/06/20 08:01:50;;;;;;;8.25;2.33;;;;;;;;;;5001128;28;20100;-60
2021/06/20 08:04:16;;;;;;;9.02;2.50;;;;;;;;;;5022022;28;20072;-59
2021/06/20 08:06:41;;;;;;;15.65;2.30;;;;;;;;;;5003355;28;20587;-59
2021/06/20 08:09:07;;;;;;;9.98;3.17;;;;;;;;;;4999537;28;20030;-60
2021/06/20 08:11:33;;;;;;;7.35;2.33;;;;;;;;;;5006434;28;20125;-61
2021/06/20 08:14:00;;;;;;;9.27;2.42;;;;;;;;;;5012418;28;20034;-59
2021/06/20 08:16:26;;;;;;;5.95;2.40;;;;;;;;;;4997715;28;20021;-59
2021/06/20 08:18:52;;;;;;;7.63;2.60;;;;;;;;;;5005786;28;20040;-59
2021/06/20 08:21:18;;;;;;;5.40;2.10;;;;;;;;;;5000098;28;20519;-59
2021/06/20 08:23:44;;;;;;;7.72;2.58;;;;;;;;;;5003586;28;20065;-60
2021/06/20 08:26:09;;;;;;;10.65;2.80;;;;;;;;;;5003203;28;20045;-59
2021/06/20 08:28:35;;;;;;;6.90;2.60;;;;;;;;;;5003334;28;20033;-59
2021/06/20 08:31:02;;;;;;;5.13;2.05;;;;;;;;;;4997853;28;20030;-59
2021/06/20 08:33:27;;;;;;;9.73;2.50;;;;;;;;;;5005700;28;20030;-59
2021/06/20 08:35:53;;;;;;;7.53;2.33;;;;;;;;;;4998968;28;20111;-59
2021/06/20 08:38:18;;;;;;;9.57;2.40;;;;;;;;;;4995741;28;20199;-60
2021/06/20 08:40:44;;;;;;;7.53;2.17;;;;;;;;;;5004839;28;20125;-59
2021/06/20 08:43:10;;;;;;;9.43;2.40;;;;;;;;;;5001066;28;20065;-59
2021/06/20 08:45:36;;;;;;;9.32;2.45;;;;;;;;;;4999627;28;20032;-59
2021/06/20 08:48:02;;;;;;;6.22;2.47;;;;;;;;;;5000689;28;20101;-62
2021/06/20 08:50:28;;;;;;;8.00;2.45;;;;;;;;;;5001037;28;20157;-60
2021/06/20 08:52:54;;;;;;;8.98;2.30;;;;;;;;;;4999052;28;20057;-58
2021/06/20 08:55:21;;;;;;;7.38;2.22;;;;;;;;;;5002229;28;20038;-58
2021/06/20 08:57:51;;;;;;;7.90;2.00;;;;;;;;;;4999497;28;20361;-59
2021/06/20 09:00:19;;;;;;;6.15;2.03;;;;;;;;;;4993595;28;20061;-61
2021/06/20 09:02:56;;;;;;;9.90;2.42;;;;;;;;;;4995958;28;20085;-60
2021/06/20 09:05:22;;;;;;;5.93;2.20;;;;;;;;;;5013877;28;20399;-60
2021/06/20 09:07:47;;;;;;;8.13;2.20;;;;;;;;;;5000632;28;20022;-62
2021/06/20 09:10:15;;;;;;;10.75;2.50;;;;;;;;;;4998799;28;20038;-62
2021/06/20 09:12:55;;;;;;;7.35;2.50;;;;;;;;;;4994017;28;20496;-61
2021/06/20 09:15:23;;;;;;;8.57;2.47;;;;;;;;;;5002636;28;20042;-60
2021/06/20 09:17:55;;;;;;;5.60;2.20;;;;;;;;;;5000948;28;20038;-62
2021/06/20 09:20:35;;;;;;;8.90;2.58;;;;;;;;;;4994932;28;20273;-60
2021/06/20 09:23:08;;;;;;;8.18;2.70;;;;;;;;;;4995373;28;20030;-62
2021/06/20 09:25:34;;;;;;;8.18;2.75;;;;;;;;;;5001158;28;20456;-62
2021/06/20 09:28:01;;;;;;;7.35;2.47;;;;;;;;;;5004085;28;20065;-60
2021/06/20 09:30:29;;;;;;;8.00;2.63;;;;;;;;;;5003680;28;20057;-59
2021/06/20 09:33:02;;;;;;;16.90;3.30;;;;;;;;;;5007823;28;20029;-60
2021/06/20 09:35:42;;;;;;;8.32;2.60;;;;;;;;;;5007895;28;20049;-59
2021/06/20 09:38:28;;;;;;;14.95;3.78;;;;;;;;;;5001398;28;20053;-60
2021/06/20 09:41:09;;;;;;;8.70;3.35;;;;;;;;;;5002051;28;20025;-59
2021/06/20 09:43:36;;;;;;;9.85;2.97;;;;;;;;;;4996226;28;20029;-60
2021/06/20 09:46:03;;;;;;;15.38;3.97;;;;;;;;;;5003383;28;20030;-59
2021/06/20 09:48:34;;;;;;;14.18;3.55;;;;;;;;;;5002598;28;20122;-59
2021/06/20 09:51:11;;;;;;;9.52;3.38;;;;;;;;;;4999690;28;20032;-58
2021/06/20 09:53:40;;;;;;;11.63;3.63;;;;;;;;;;5003751;28;20030;-58
2021/06/20 09:56:30;;;;;;;12.32;3.42;;;;;;;;;;5002605;28;20029;-58
2021/06/20 09:59:05;;;;;;;12.27;3.38;;;;;;;;;;4999183;28;20027;-60
2021/06/20 10:01:32;;;;;;;15.45;3.30;;;;;;;;;;5003039;28;20029;-60
2021/06/20 10:03:58;;;;;;;15.07;3.45;;;;;;;;;;5001629;28;20038;-58
2021/06/20 10:06:24;;;;;;;10.95;3.60;;;;;;;;;;4998708;28;20400;-59
2021/06/20 10:08:50;;;;;;;21.20;3.83;;;;;;;;;;5005651;28;20022;-58
2021/06/20 10:11:17;;;;;;;9.43;3.60;;;;;;;;;;5004300;28;20041;-58
2021/06/20 10:13:43;;;;;;;22.10;3.50;;;;;;;;;;5003467;28;20033;-59
2021/06/20 10:16:20;;;;;;;10.02;3.72;;;;;;;;;;5003096;28;20053;-58
2021/06/20 10:18:50;;;;;;;13.52;2.95;;;;;;;;;;5003172;28;20033;-59
2021/06/20 10:21:35;;;;;;;13.75;3.97;;;;;;;;;;5003872;28;20032;-59
2021/06/20 10:24:14;;;;;;;9.85;3.15;;;;;;;;;;5004143;28;20022;-58
2021/06/20 10:26:51;;;;;;;;;;;;;;;;;;5005746;28;20076;-58
2021/06/20 10:29:26;;;;;;;12.95;3.45;;;;;;;;;;4999291;28;19917;-59
2021/06/20 10:31:52;;;;;;;14.27;3.10;;;;;;;;;;5006925;28;20099;-59
2021/06/20 10:34:22;;;;;;;11.57;2.92;;;;;;;;;;5001883;28;20044;-59
2021/06/20 10:36:51;;;;;;;15.57;3.05;;;;;;;;;;4999161;28;20040;-59
2021/06/20 10:39:17;;;;;;;11.45;3.00;;;;;;;;;;4998629;28;20404;-59
2021/06/20 10:41:42;;;;;;;12.80;3.08;;;;;;;;;;5004808;28;20561;-58
2021/06/20 10:44:08;;;;;;;10.95;2.75;;;;;;;;;;4997413;28;20038;-59
2021/06/20 10:46:35;;;;;;;15.55;2.90;;;;;;;;;;5002561;28;20036;-58
2021/06/20 10:49:13;;;;;;;15.65;2.95;;;;;;;;;;5001665;28;20836;-59
2021/06/20 10:51:38;;;;;;;16.40;3.05;;;;;;;;;;4997866;28;20545;-58
2021/06/20 10:54:04;;;;;;;17.92;3.70;;;;;;;;;;5006913;28;20030;-59
2021/06/20 10:56:31;;;;;;;13.25;3.28;;;;;;;;;;5005826;28;20105;-58
2021/06/20 10:58:56;;;;;;;12.98;3.50;;;;;;;;;;5003678;28;20108;-58
2021/06/20 11:01:28;;;;;;;15.60;3.47;;;;;;;;;;5006684;28;20129;-56
2021/06/20 11:03:53;;;;;;;19.25;3.88;;;;;;;;;;5003523;28;20026;-58
2021/06/20 11:06:25;;;;;;;19.20;3.80;;;;;;;;;;5005419;28;20143;-59
2021/06/20 11:09:04;;;;;;;12.65;3.30;;;;;;;;;;5002321;28;20461;-59
2021/06/20 11:11:49;;;;;;;15.65;3.55;;;;;;;;;;5001510;28;20029;-58
2021/06/20 11:14:14;;;;;;;14.48;3.55;;;;;;;;;;5000735;28;20392;-58
2021/06/20 11:16:42;;;;;;;21.15;4.38;;;;;;;;;;5004650;28;20026;-59
2021/06/20 11:19:20;;;;;;;18.40;4.53;;;;;;;;;;5001557;28;20029;-58
2021/06/20 11:22:01;;;;;;;20.42;4.30;;;;;;;;;;4995364;28;20404;-58
2021/06/20 11:24:40;;;;;;;16.02;3.70;;;;;;;;;;5000758;28;20034;-59
2021/06/20 11:27:10;;;;;;;15.95;4.10;;;;;;;;;;5006284;28;20389;-58
2021/06/20 11:29:43;;;;;;;17.35;3.80;;;;;;;;;;5002938;28;20037;-60
2021/06/20 11:32:30;;;;;;;18.98;4.90;;;;;;;;;;5002026;28;20065;-59
2021/06/20 11:35:05;;;;;;;20.05;4.40;;;;;;;;;;5002308;28;20153;-59
2021/06/20 11:37:37;;;;;;;17.80;4.50;;;;;;;;;;5002631;28;20080;-58
2021/06/20 11:40:10;;;;;;;23.35;4.10;;;;;;;;;;5022775;28;20117;-59
2021/06/20 11:42:38;;;;;;;15.63;4.03;;;;;;;;;;5003859;28;20393;-58
2021/06/20 11:45:07;;;;;;;25.02;4.95;;;;;;;;;;4999469;28;20084;-62
2021/06/20 11:47:37;;;;;;;15.73;4.43;;;;;;;;;;5003671;28;20624;-60
2021/06/20 11:50:10;;;;;;;18.23;4.25;;;;;;;;;;4999965;28;20096;-60
2021/06/20 11:52:37;;;;;;;23.30;4.32;;;;;;;;;;4999635;28;20030;-60
2021/06/20 11:55:17;;;;;;;23.95;4.93;;;;;;;;;;5003957;28;20036;-59
2021/06/20 11:57:43;;;;;;;28.27;4.95;;;;;;;;;;5019357;28;20044;-59
2021/06/20 12:00:30;;;;;;;19.95;4.25;;;;;;;;;;4998945;28;20034;-60
2021/06/20 12:03:04;;;;;;;24.10;4.60;;;;;;;;;;5017161;28;20080;-59
2021/06/20 12:05:34;;;;;;;19.83;4.38;;;;;;;;;;5000327;28;20061;-60
2021/06/20 12:08:02;;;;;;;17.45;4.10;;;;;;;;;;4999869;28;20077;-60
2021/06/20 12:10:29;;;;;;;20.67;4.53;;;;;;;;;;5003986;28;20036;-59
2021/06/20 12:12:59;;;;;;;21.20;4.13;;;;;;;;;;5001301;28;20508;-60
2021/06/20 12:15:24;;;;;;;22.60;4.43;;;;;;;;;;5002728;28;20373;-60
2021/06/20 12:17:50;;;;;;;19.38;4.60;;;;;;;;;;5003804;28;20026;-60
2021/06/20 12:20:30;;;;;;;21.70;4.30;;;;;;;;;;5004222;28;20029;-60
2021/06/20 12:22:57;;;;;;;18.23;4.20;;;;;;;;;;5001115;28;20034;-60
2021/06/20 12:25:22;;;;;;;23.75;4.82;;;;;;;;;;5002158;28;20038;-62
2021/06/20 12:27:48;;;;;;;19.05;4.35;;;;;;;;;;4999197;28;20126;-64
2021/06/20 12:30:18;;;;;;;20.67;4.55;;;;;;;;;;5002815;28;20121;-60
2021/06/20 12:32:45;;;;;;;18.23;4.22;;;;;;;;;;4997458;28;20108;-60
2021/06/20 12:35:20;;;;;;;25.65;4.25;;;;;;;;;;5005624;28;20461;-60
2021/06/20 12:37:45;;;;;;;24.58;4.30;;;;;;;;;;5001350;28;20034;-62
2021/06/20 12:40:17;;;;;;;25.27;4.07;;;;;;;;;;4999124;28;20092;-59
2021/06/20 12:42:52;;;;;;;25.45;5.45;;;;;;;;;;5000578;28;20037;-63
2021/06/20 12:45:22;;;;;;;20.10;4.43;;;;;;;;;;5003209;28;20040;-60
2021/06/20 12:47:48;;;;;;;18.80;3.80;;;;;;;;;;4996927;28;20723;-59
2021/06/20 12:50:24;;;;;;;23.88;4.47;;;;;;;;;;4999282;28;20053;-60
2021/06/20 12:52:50;;;;;;;21.17;4.32;;;;;;;;;;5001231;28;20030;-60
2021/06/20 12:55:18;;;;;;;28.83;5.38;;;;;;;;;;5000401;28;20412;-60
2021/06/20 12:57:52;;;;;;;20.48;4.40;;;;;;;;;;4998674;28;20991;-62
2021/06/20 13:00:21;;;;;;;22.95;4.20;;;;;;;;;;5002636;28;20554;-61
2021/06/20 13:02:52;;;;;;;26.55;4.97;;;;;;;;;;4995014;28;20403;-60
2021/06/20 13:05:40;;;;;;;24.20;4.45;;;;;;;;;;4999024;28;20133;-61
2021/06/20 13:08:08;;;;;;;16.38;4.63;;;;;;;;;;4998998;28;20014;-60
2021/06/20 13:10:35;;;;;;;23.00;4.45;;;;;;;;;;4994932;28;20029;-62
2021/06/20 13:13:01;;;;;;;17.75;4.00;;;;;;;;;;5000904;28;20034;-62
2021/06/20 13:15:27;;;;;;;27.38;4.72;;;;;;;;;;5002854;28;20132;-61
2021/06/20 13:17:53;;;;;;;21.38;4.50;;;;;;;;;;4989881;28;20381;-61
2021/06/20 13:20:23;;;;;;;20.15;4.10;;;;;;;;;;4998882;28;20044;-62
2021/06/20 13:22:49;;;;;;;22.88;4.38;;;;;;;;;;5002726;28;20037;-62
2021/06/20 13:25:15;;;;;;;23.67;4.03;;;;;;;;;;5000443;28;20040;-61
2021/06/20 13:27:41;;;;;;;17.08;4.00;;;;;;;;;;4997722;28;20027;-62
2021/06/20 13:30:08;;;;;;;19.60;4.05;;;;;;;;;;4997255;28;20025;-61
2021/06/20 13:32:34;;;;;;;22.13;4.57;;;;;;;;;;5000858;28;20034;-60
2021/06/20 13:35:00;;;;;;;22.50;4.57;;;;;;;;;;5002514;28;20038;-60
2021/06/20 13:37:26;;;;;;;23.10;3.85;;;;;;;;;;4997628;28;20041;-61
2021/06/20 13:39:51;;;;;;;21.85;4.18;;;;;;;;;;5005296;28;20057;-61
2021/06/20 13:42:17;;;;;;;20.33;3.97;;;;;;;;;;4997632;28;20060;-60
2021/06/20 13:44:43;;;;;;;25.40;4.63;;;;;;;;;;5002237;28;20096;-61
2021/06/20 13:47:09;;;;;;;24.58;4.68;;;;;;;;;;4995784;28;20453;-61
2021/06/20 13:49:35;;;;;;;25.13;4.40;;;;;;;;;;4995854;28;20041;-61
2021/06/20 13:52:01;;;;;;;26.95;4.57;;;;;;;;;;4996775;28;20030;-61
2021/06/20 13:54:26;;;;;;;25.25;4.43;;;;;;;;;;5004796;28;20492;-61
2021/06/20 13:56:53;;;;;;;28.95;4.75;;;;;;;;;;5001417;28;20026;-60
2021/06/20 13:59:20;;;;;;;28.33;4.70;;;;;;;;;;4997983;28;20034;-63
2021/06/20 14:01:46;;;;;;;22.40;4.33;;;;;;;;;;5001809;28;20512;-62
2021/06/20 14:04:11;;;;;;;19.63;4.82;;;;;;;;;;5002812;28;20276;-61
2021/06/20 14:06:37;;;;;;;28.98;4.32;;;;;;;;;;4998226;28;20037;-61
2021/06/20 14:09:06;;;;;;;22.73;4.18;;;;;;;;;;5003172;28;20025;-61
2021/06/20 14:11:32;;;;;;;22.08;4.00;;;;;;;;;;4999776;28;20025;-60
2021/06/20 14:13:57;;;;;;;26.38;4.00;;;;;;;;;;4996735;28;20113;-60
2021/06/20 14:16:23;;;;;;;21.80;4.60;;;;;;;;;;5001161;28;20079;-60
2021/06/20 14:18:48;;;;;;;21.38;4.32;;;;;;;;;;5001692;28;20121;-61
2021/06/20 14:21:14;;;;;;;23.67;4.25;;;;;;;;;;5001419;28;20507;-63
2021/06/20 14:23:39;;;;;;;21.13;4.35;;;;;;;;;;5005674;28;20384;-60
2021/06/20 14:26:05;;;;;;;23.23;4.25;;;;;;;;;;5000236;28;20026;-63
2021/06/20 14:28:30;;;;;;;24.45;5.13;;;;;;;;;;5016174;28;20018;-61
2021/06/20 14:30:56;;;;;;;26.58;4.53;;;;;;;;;;5003315;28;20056;-63
2021/06/20 14:33:22;;;;;;;27.17;5.10;;;;;;;;;;4997276;28;20222;-63
2021/06/20 14:35:47;;;;;;;22.15;4.50;;;;;;;;;;5009579;28;20041;-62